sensor_id;sensor_type;location;lat;lon;timestamp;P1;durP1;ratioP1;P2;durP2;ratioP2
22673;SDS011;11504;43.334;21.918;2024-01-10T00:03:46;16.0;;;14.0;;
22673;SDS011;11504;43.334;21.918;2024-01-10T00:08:22;16.0;;;14.0;;
22673;SDS011;11504;43.334;21.918;2024-01-10T00:12:59;16.0;;;14.0;;
22673;SDS011;11504;43.334;21.918;2024-01-10T00:17:35;19.0;;;16.0;;
22673;SDS011;11504;43.334;21.918;2024-01-10T00:22:12;19.0;;;16.0;;
22673;SDS011;11504;43.334;21.918;2024-01-10T00:26:48;16.0;;;14.0;;
22673;SDS011;11504;43.334;21.918;2024-01-10T00:31:24;16.0;;;14.0;;
22673;SDS011;11504;43.334;21.918;2024-01-10T00:36:01;13.0;;;12.0;;
22673;SDS011;11504;43.334;21.918;2024-01-10T00:40:37;13.0;;;12.0;;
22673;SDS011;11504;43.334;21.918;2024-01-10T00:45:13;14.0;;;13.0;;
22673;SDS011;11504;43.334;21.918;2024-01-10T00:49:50;14.0;;;13.0;;
22673;SDS011;11504;43.334;21.918;2024-01-10T00:54:26;15.0;;;14.0;;
22673;SDS011;11504;43.334;21.918;2024-01-10T00:59:02;15.0;;;14.0;;
22673;SDS011;11504;43.334;21.918;2024-01-10T01:03:38;18.0;;;16.0;;
22673;SDS011;11504;43.334;21.918;2024-01-10T01:08:14;18.0;;;16.0;;
22673;SDS011;11504;43.334;21.918;2024-01-10T01:12:51;18.0;;;16.0;;
22673;SDS011;11504;43.334;21.918;2024-01-10T01:17:28;21.0;;;18.0;;
22673;SDS011;11504;43.334;21.918;2024-01-10T01:22:04;21.0;;;18.0;;
22673;SDS011;11504;43.334;21.918;2024-01-10T01:26:41;18.0;;;15.0;;
22673;SDS011;11504;43.334;21.918;2024-01-10T01:31:17;18.0;;;15.0;;
22673;SDS011;11504;43.334;21.918;2024-01-10T01:35:54;15.0;;;12.0;;
22673;SDS011;11504;43.334;21.918;2024-01-10T01:40:31;15.0;;;12.0;;
22673;SDS011;11504;43.334;21.918;2024-01-10T01:45:08;14.0;;;12.0;;
22673;SDS011;11504;43.334;21.918;2024-01-10T01:49:45;14.0;;;12.0;;
22673;SDS011;11504;43.334;21.918;2024-01-10T01:54:23;13.0;;;12.0;;
22673;SDS011;11504;43.334;21.918;2024-01-10T01:59:03;13.0;;;12.0;;
22673;SDS011;11504;43.334;21.918;2024-01-10T02:03:40;12.0;;;10.0;;
22673;SDS011;11504;43.334;21.918;2024-01-10T02:08:16;12.0;;;10.0;;
22673;SDS011;11504;43.334;21.918;2024-01-10T02:12:52;12.0;;;10.0;;
22673;SDS011;11504;43.334;21.918;2024-01-10T02:17:29;10.0;;;9.0;;
22673;SDS011;11504;43.334;21.918;2024-01-10T02:22:05;10.0;;;9.0;;
22673;SDS011;11504;43.334;21.918;2024-01-10T02:26:42;11.0;;;10.0;;
22673;SDS011;11504;43.334;21.918;2024-01-10T02:31:19;11.0;;;10.0;;
22673;SDS011;11504;43.334;21.918;2024-01-10T02:35:55;12.0;;;11.0;;
22673;SDS011;11504;43.334;21.918;2024-01-10T02:40:32;12.0;;;11.0;;
22673;SDS011;11504;43.334;21.918;2024-01-10T02:45:09;13.0;;;12.0;;
22673;SDS011;11504;43.334;21.918;2024-01-10T02:49:45;13.0;;;12.0;;
22673;SDS011;11504;43.334;21.918;2024-01-10T02:54:22;14.0;;;13.0;;
22673;SDS011;11504;43.334;21.918;2024-01-10T02:58:58;14.0;;;13.0;;
22673;SDS011;11504;43.334;21.918;2024-01-10T03:03:34;12.0;;;11.0;;
22673;SDS011;11504;43.334;21.918;2024-01-10T03:08:11;12.0;;;11.0;;
22673;SDS011;11504;43.334;21.918;2024-01-10T03:12:48;12.0;;;11.0;;
22673;SDS011;11504;43.334;21.918;2024-01-10T03:17:24;9.0;;;9.0;;
22673;SDS011;11504;43.334;21.918;2024-01-10T03:22:00;9.0;;;9.0;;
22673;SDS011;11504;43.334;21.918;2024-01-10T03:26:36;10.0;;;9.0;;
22673;SDS011;11504;43.334;21.918;2024-01-10T03:31:13;10.0;;;9.0;;
22673;SDS011;11504;43.334;21.918;2024-01-10T03:35:49;10.0;;;9.0;;
22673;SDS011;11504;43.334;21.918;2024-01-10T03:40:26;10.0;;;9.0;;
22673;SDS011;11504;43.334;21.918;2024-01-10T03:45:03;9.0;;;8.0;;
22673;SDS011;11504;43.334;21.918;2024-01-10T03:49:42;9.0;;;8.0;;
22673;SDS011;11504;43.334;21.918;2024-01-10T03:54:18;8.0;;;7.0;;
22673;SDS011;11504;43.334;21.918;2024-01-10T03:58:55;8.0;;;7.0;;
22673;SDS011;11504;43.334;21.918;2024-01-10T04:03:31;10.0;;;8.0;;
22673;SDS011;11504;43.334;21.918;2024-01-10T04:08:09;10.0;;;8.0;;
22673;SDS011;11504;43.334;21.918;2024-01-10T04:12:45;10.0;;;8.0;;
22673;SDS011;11504;43.334;21.918;2024-01-10T04:17:22;13.0;;;10.0;;
22673;SDS011;11504;43.334;21.918;2024-01-10T04:21:59;13.0;;;10.0;;
22673;SDS011;11504;43.334;21.918;2024-01-10T04:26:36;12.0;;;9.0;;
22673;SDS011;11504;43.334;21.918;2024-01-10T04:31:13;12.0;;;9.0;;
22673;SDS011;11504;43.334;21.918;2024-01-10T04:35:50;10.0;;;8.0;;
22673;SDS011;11504;43.334;21.918;2024-01-10T04:40:26;10.0;;;8.0;;
22673;SDS011;11504;43.334;21.918;2024-01-10T04:45:03;15.0;;;13.0;;
22673;SDS011;11504;43.334;21.918;2024-01-10T04:49:42;15.0;;;13.0;;
22673;SDS011;11504;43.334;21.918;2024-01-10T04:54:18;20.0;;;18.0;;
22673;SDS011;11504;43.334;21.918;2024-01-10T04:58:54;20.0;;;18.0;;
22673;SDS011;11504;43.334;21.918;2024-01-10T05:03:31;20.0;;;18.0;;
22673;SDS011;11504;43.334;21.918;2024-01-10T05:08:07;20.0;;;18.0;;
22673;SDS011;11504;43.334;21.918;2024-01-10T05:12:43;20.0;;;18.0;;
22673;SDS011;11504;43.334;21.918;2024-01-10T05:17:20;21.0;;;18.0;;
22673;SDS011;11504;43.334;21.918;2024-01-10T05:21:57;21.0;;;18.0;;
22673;SDS011;11504;43.334;21.918;2024-01-10T05:26:34;20.0;;;17.0;;
22673;SDS011;11504;43.334;21.918;2024-01-10T05:31:10;20.0;;;17.0;;
22673;SDS011;11504;43.334;21.918;2024-01-10T05:35:46;18.0;;;16.0;;
22673;SDS011;11504;43.334;21.918;2024-01-10T05:40:23;18.0;;;16.0;;
22673;SDS011;11504;43.334;21.918;2024-01-10T05:45:00;18.0;;;16.0;;
22673;SDS011;11504;43.334;21.918;2024-01-10T05:49:37;18.0;;;16.0;;
22673;SDS011;11504;43.334;21.918;2024-01-10T05:54:13;17.0;;;16.0;;
22673;SDS011;11504;43.334;21.918;2024-01-10T05:58:49;17.0;;;16.0;;
22673;SDS011;11504;43.334;21.918;2024-01-10T06:03:25;17.0;;;16.0;;
22673;SDS011;11504;43.334;21.918;2024-01-10T06:08:01;23.0;;;21.0;;
22673;SDS011;11504;43.334;21.918;2024-01-10T06:12:38;23.0;;;21.0;;
22673;SDS011;11504;43.334;21.918;2024-01-10T06:17:14;29.0;;;26.0;;
22673;SDS011;11504;43.334;21.918;2024-01-10T06:21:51;29.0;;;26.0;;
22673;SDS011;11504;43.334;21.918;2024-01-10T06:26:27;32.0;;;28.0;;
22673;SDS011;11504;43.334;21.918;2024-01-10T06:31:04;32.0;;;28.0;;
22673;SDS011;11504;43.334;21.918;2024-01-10T06:35:40;34.0;;;31.0;;
22673;SDS011;11504;43.334;21.918;2024-01-10T06:40:17;34.0;;;31.0;;
22673;SDS011;11504;43.334;21.918;2024-01-10T06:44:54;38.0;;;35.0;;
22673;SDS011;11504;43.334;21.918;2024-01-10T06:49:31;38.0;;;35.0;;
22673;SDS011;11504;43.334;21.918;2024-01-10T06:54:07;42.0;;;39.0;;
22673;SDS011;11504;43.334;21.918;2024-01-10T06:58:44;42.0;;;39.0;;
22673;SDS011;11504;43.334;21.918;2024-01-10T07:03:20;42.0;;;39.0;;
22673;SDS011;11504;43.334;21.918;2024-01-10T07:07:56;38.0;;;34.0;;
22673;SDS011;11504;43.334;21.918;2024-01-10T07:12:32;38.0;;;34.0;;
22673;SDS011;11504;43.334;21.918;2024-01-10T07:17:10;34.0;;;29.0;;
22673;SDS011;11504;43.334;21.918;2024-01-10T07:21:46;34.0;;;29.0;;
22673;SDS011;11504;43.334;21.918;2024-01-10T07:26:22;30.0;;;26.0;;
22673;SDS011;11504;43.334;21.918;2024-01-10T07:30:58;30.0;;;26.0;;
22673;SDS011;11504;43.334;21.918;2024-01-10T07:35:34;26.0;;;22.0;;
22673;SDS011;11504;43.334;21.918;2024-01-10T07:40:10;26.0;;;22.0;;
22673;SDS011;11504;43.334;21.918;2024-01-10T07:44:47;23.0;;;20.0;;
22673;SDS011;11504;43.334;21.918;2024-01-10T07:49:23;23.0;;;20.0;;
22673;SDS011;11504;43.334;21.918;2024-01-10T07:53:59;20.0;;;18.0;;
22673;SDS011;11504;43.334;21.918;2024-01-10T07:58:35;20.0;;;18.0;;
22673;SDS011;11504;43.334;21.918;2024-01-10T08:03:12;20.0;;;18.0;;
22673;SDS011;11504;43.334;21.918;2024-01-10T08:07:48;23.0;;;21.0;;
22673;SDS011;11504;43.334;21.918;2024-01-10T08:12:24;23.0;;;21.0;;
22673;SDS011;11504;43.334;21.918;2024-01-10T08:17:01;26.0;;;24.0;;
22673;SDS011;11504;43.334;21.918;2024-01-10T08:21:38;26.0;;;24.0;;
22673;SDS011;11504;43.334;21.918;2024-01-10T08:26:14;26.0;;;24.0;;
22673;SDS011;11504;43.334;21.918;2024-01-10T08:30:51;26.0;;;24.0;;
22673;SDS011;11504;43.334;21.918;2024-01-10T08:44:43;27.0;;;25.0;;
22673;SDS011;11504;43.334;21.918;2024-01-10T08:49:19;27.0;;;25.0;;
22673;SDS011;11504;43.334;21.918;2024-01-10T08:53:55;27.0;;;25.0;;
22673;SDS011;11504;43.334;21.918;2024-01-10T08:58:32;27.0;;;25.0;;
22673;SDS011;11504;43.334;21.918;2024-01-10T09:03:08;27.0;;;25.0;;
22673;SDS011;11504;43.334;21.918;2024-01-10T09:07:45;27.0;;;24.0;;
22673;SDS011;11504;43.334;21.918;2024-01-10T09:12:21;27.0;;;24.0;;
22673;SDS011;11504;43.334;21.918;2024-01-10T09:16:59;27.0;;;24.0;;
22673;SDS011;11504;43.334;21.918;2024-01-10T09:21:36;27.0;;;24.0;;
22673;SDS011;11504;43.334;21.918;2024-01-10T09:26:15;28.0;;;22.0;;
22673;SDS011;11504;43.334;21.918;2024-01-10T09:30:52;28.0;;;22.0;;
22673;SDS011;11504;43.334;21.918;2024-01-10T09:35:29;29.0;;;21.0;;
22673;SDS011;11504;43.334;21.918;2024-01-10T09:40:14;29.0;;;21.0;;
22673;SDS011;11504;43.334;21.918;2024-01-10T09:44:53;27.0;;;22.0;;
22673;SDS011;11504;43.334;21.918;2024-01-10T09:49:30;27.0;;;22.0;;
22673;SDS011;11504;43.334;21.918;2024-01-10T09:54:07;25.0;;;23.0;;
22673;SDS011;11504;43.334;21.918;2024-01-10T09:58:49;25.0;;;23.0;;
22673;SDS011;11504;43.334;21.918;2024-01-10T10:03:27;25.0;;;23.0;;
22673;SDS011;11504;43.334;21.918;2024-01-10T10:08:11;30.0;;;26.0;;
22673;SDS011;11504;43.334;21.918;2024-01-10T10:12:52;30.0;;;26.0;;
22673;SDS011;11504;43.334;21.918;2024-01-10T10:17:29;36.0;;;29.0;;
22673;SDS011;11504;43.334;21.918;2024-01-10T10:22:09;36.0;;;29.0;;
22673;SDS011;11504;43.334;21.918;2024-01-10T10:26:47;34.0;;;28.0;;
22673;SDS011;11504;43.334;21.918;2024-01-10T10:31:25;34.0;;;28.0;;
22673;SDS011;11504;43.334;21.918;2024-01-10T10:36:04;31.0;;;27.0;;
22673;SDS011;11504;43.334;21.918;2024-01-10T10:40:42;31.0;;;27.0;;
22673;SDS011;11504;43.334;21.918;2024-01-10T10:45:19;28.0;;;26.0;;
22673;SDS011;11504;43.334;21.918;2024-01-10T10:49:59;28.0;;;26.0;;
22673;SDS011;11504;43.334;21.918;2024-01-10T10:54:40;26.0;;;25.0;;
22673;SDS011;11504;43.334;21.918;2024-01-10T10:59:25;26.0;;;25.0;;
22673;SDS011;11504;43.334;21.918;2024-01-10T11:04:03;23.0;;;22.0;;
22673;SDS011;11504;43.334;21.918;2024-01-10T11:08:55;23.0;;;22.0;;
22673;SDS011;11504;43.334;21.918;2024-01-10T11:14:26;20.0;;;19.0;;
22673;SDS011;11504;43.334;21.918;2024-01-10T11:20:13;20.0;;;19.0;;
22673;SDS011;11504;43.334;21.918;2024-01-10T11:24:58;19.0;;;17.0;;
22673;SDS011;11504;43.334;21.918;2024-01-10T11:29:38;19.0;;;17.0;;
22673;SDS011;11504;43.334;21.918;2024-01-10T11:34:14;18.0;;;15.0;;
22673;SDS011;11504;43.334;21.918;2024-01-10T11:39:04;18.0;;;15.0;;
22673;SDS011;11504;43.334;21.918;2024-01-10T11:43:40;18.0;;;15.0;;
22673;SDS011;11504;43.334;21.918;2024-01-10T11:48:26;20.0;;;14.0;;
22673;SDS011;11504;43.334;21.918;2024-01-10T11:53:03;20.0;;;14.0;;
22673;SDS011;11504;43.334;21.918;2024-01-10T11:57:40;21.0;;;14.0;;
22673;SDS011;11504;43.334;21.918;2024-01-10T12:02:19;21.0;;;14.0;;
22673;SDS011;11504;43.334;21.918;2024-01-10T12:06:58;21.0;;;16.0;;
22673;SDS011;11504;43.334;21.918;2024-01-10T12:11:35;21.0;;;16.0;;
22673;SDS011;11504;43.334;21.918;2024-01-10T12:16:13;21.0;;;17.0;;
22673;SDS011;11504;43.334;21.918;2024-01-10T12:20:51;21.0;;;17.0;;
22673;SDS011;11504;43.334;21.918;2024-01-10T12:25:27;19.0;;;16.0;;
22673;SDS011;11504;43.334;21.918;2024-01-10T12:30:08;19.0;;;16.0;;
22673;SDS011;11504;43.334;21.918;2024-01-10T12:34:45;17.0;;;14.0;;
22673;SDS011;11504;43.334;21.918;2024-01-10T12:39:22;17.0;;;14.0;;
22673;SDS011;11504;43.334;21.918;2024-01-10T12:44:01;15.0;;;13.0;;
22673;SDS011;11504;43.334;21.918;2024-01-10T12:48:41;15.0;;;13.0;;
22673;SDS011;11504;43.334;21.918;2024-01-10T12:53:18;15.0;;;13.0;;
22673;SDS011;11504;43.334;21.918;2024-01-10T12:57:54;13.0;;;12.0;;
22673;SDS011;11504;43.334;21.918;2024-01-10T13:02:30;13.0;;;12.0;;
22673;SDS011;11504;43.334;21.918;2024-01-10T13:07:07;14.0;;;13.0;;
22673;SDS011;11504;43.334;21.918;2024-01-10T13:11:44;14.0;;;13.0;;
22673;SDS011;11504;43.334;21.918;2024-01-10T13:16:21;16.0;;;14.0;;
22673;SDS011;11504;43.334;21.918;2024-01-10T13:20:58;16.0;;;14.0;;
22673;SDS011;11504;43.334;21.918;2024-01-10T13:25:35;16.0;;;15.0;;
22673;SDS011;11504;43.334;21.918;2024-01-10T13:30:13;16.0;;;15.0;;
22673;SDS011;11504;43.334;21.918;2024-01-10T13:34:50;17.0;;;16.0;;
22673;SDS011;11504;43.334;21.918;2024-01-10T13:39:26;17.0;;;16.0;;
22673;SDS011;11504;43.334;21.918;2024-01-10T13:44:03;18.0;;;16.0;;
22673;SDS011;11504;43.334;21.918;2024-01-10T13:48:39;18.0;;;16.0;;
22673;SDS011;11504;43.334;21.918;2024-01-10T13:53:15;18.0;;;16.0;;
22673;SDS011;11504;43.334;21.918;2024-01-10T13:57:51;19.0;;;16.0;;
22673;SDS011;11504;43.334;21.918;2024-01-10T14:02:27;19.0;;;16.0;;
22673;SDS011;11504;43.334;21.918;2024-01-10T14:07:04;20.0;;;16.0;;
22673;SDS011;11504;43.334;21.918;2024-01-10T14:11:40;20.0;;;16.0;;
22673;SDS011;11504;43.334;21.918;2024-01-10T14:16:16;20.0;;;17.0;;
22673;SDS011;11504;43.334;21.918;2024-01-10T14:20:52;20.0;;;17.0;;
22673;SDS011;11504;43.334;21.918;2024-01-10T14:25:28;20.0;;;18.0;;
22673;SDS011;11504;43.334;21.918;2024-01-10T14:30:07;20.0;;;18.0;;
22673;SDS011;11504;43.334;21.918;2024-01-10T14:34:45;21.0;;;20.0;;
22673;SDS011;11504;43.334;21.918;2024-01-10T14:39:21;21.0;;;20.0;;
22673;SDS011;11504;43.334;21.918;2024-01-10T14:43:58;21.0;;;20.0;;
22673;SDS011;11504;43.334;21.918;2024-01-10T14:48:36;30.0;;;27.0;;
22673;SDS011;11504;43.334;21.918;2024-01-10T14:53:12;30.0;;;27.0;;
22673;SDS011;11504;43.334;21.918;2024-01-10T14:57:49;39.0;;;34.0;;
22673;SDS011;11504;43.334;21.918;2024-01-10T15:02:26;39.0;;;34.0;;
22673;SDS011;11504;43.334;21.918;2024-01-10T15:07:04;38.0;;;34.0;;
22673;SDS011;11504;43.334;21.918;2024-01-10T15:11:42;38.0;;;34.0;;
22673;SDS011;11504;43.334;21.918;2024-01-10T15:16:18;37.0;;;33.0;;
22673;SDS011;11504;43.334;21.918;2024-01-10T15:20:54;37.0;;;33.0;;
22673;SDS011;11504;43.334;21.918;2024-01-10T15:25:31;35.0;;;31.0;;
22673;SDS011;11504;43.334;21.918;2024-01-10T15:30:09;35.0;;;31.0;;
22673;SDS011;11504;43.334;21.918;2024-01-10T15:34:47;33.0;;;29.0;;
22673;SDS011;11504;43.334;21.918;2024-01-10T15:39:24;33.0;;;29.0;;
22673;SDS011;11504;43.334;21.918;2024-01-10T15:44:00;33.0;;;29.0;;
22673;SDS011;11504;43.334;21.918;2024-01-10T15:48:36;36.0;;;28.0;;
22673;SDS011;11504;43.334;21.918;2024-01-10T15:53:12;36.0;;;28.0;;
22673;SDS011;11504;43.334;21.918;2024-01-10T15:57:49;39.0;;;28.0;;
22673;SDS011;11504;43.334;21.918;2024-01-10T16:02:27;39.0;;;28.0;;
22673;SDS011;11504;43.334;21.918;2024-01-10T16:07:04;35.0;;;28.0;;
22673;SDS011;11504;43.334;21.918;2024-01-10T16:11:41;35.0;;;28.0;;
22673;SDS011;11504;43.334;21.918;2024-01-10T16:16:22;31.0;;;27.0;;
22673;SDS011;11504;43.334;21.918;2024-01-10T16:21:04;31.0;;;27.0;;
22673;SDS011;11504;43.334;21.918;2024-01-10T16:25:41;32.0;;;28.0;;
22673;SDS011;11504;43.334;21.918;2024-01-10T16:30:17;32.0;;;28.0;;
22673;SDS011;11504;43.334;21.918;2024-01-10T16:34:54;32.0;;;29.0;;
22673;SDS011;11504;43.334;21.918;2024-01-10T16:39:30;32.0;;;29.0;;
22673;SDS011;11504;43.334;21.918;2024-01-10T16:44:06;34.0;;;31.0;;
22673;SDS011;11504;43.334;21.918;2024-01-10T16:48:42;34.0;;;31.0;;
22673;SDS011;11504;43.334;21.918;2024-01-10T16:53:18;34.0;;;31.0;;
22673;SDS011;11504;43.334;21.918;2024-01-10T16:57:54;37.0;;;33.0;;
22673;SDS011;11504;43.334;21.918;2024-01-10T17:02:31;37.0;;;33.0;;
22673;SDS011;11504;43.334;21.918;2024-01-10T17:07:07;42.0;;;38.0;;
22673;SDS011;11504;43.334;21.918;2024-01-10T17:11:43;42.0;;;38.0;;
22673;SDS011;11504;43.334;21.918;2024-01-10T17:16:20;48.0;;;42.0;;
22673;SDS011;11504;43.334;21.918;2024-01-10T17:20:56;48.0;;;42.0;;
22673;SDS011;11504;43.334;21.918;2024-01-10T17:25:32;46.0;;;41.0;;
22673;SDS011;11504;43.334;21.918;2024-01-10T17:30:10;46.0;;;41.0;;
22673;SDS011;11504;43.334;21.918;2024-01-10T17:34:48;44.0;;;40.0;;
22673;SDS011;11504;43.334;21.918;2024-01-10T17:39:24;44.0;;;40.0;;
22673;SDS011;11504;43.334;21.918;2024-01-10T17:44:00;44.0;;;40.0;;
22673;SDS011;11504;43.334;21.918;2024-01-10T17:48:36;48.0;;;42.0;;
22673;SDS011;11504;43.334;21.918;2024-01-10T17:53:13;48.0;;;42.0;;
22673;SDS011;11504;43.334;21.918;2024-01-10T17:57:49;51.0;;;43.0;;
22673;SDS011;11504;43.334;21.918;2024-01-10T18:02:25;51.0;;;43.0;;
22673;SDS011;11504;43.334;21.918;2024-01-10T18:07:01;53.0;;;43.0;;
22673;SDS011;11504;43.334;21.918;2024-01-10T18:11:38;53.0;;;43.0;;
22673;SDS011;11504;43.334;21.918;2024-01-10T18:16:14;55.0;;;43.0;;
22673;SDS011;11504;43.334;21.918;2024-01-10T18:20:50;55.0;;;43.0;;
22673;SDS011;11504;43.334;21.918;2024-01-10T18:25:26;65.0;;;55.0;;
22673;SDS011;11504;43.334;21.918;2024-01-10T18:30:04;65.0;;;55.0;;
22673;SDS011;11504;43.334;21.918;2024-01-10T18:34:43;75.0;;;67.0;;
22673;SDS011;11504;43.334;21.918;2024-01-10T18:39:20;75.0;;;67.0;;
22673;SDS011;11504;43.334;21.918;2024-01-10T18:43:56;75.0;;;67.0;;
22673;SDS011;11504;43.334;21.918;2024-01-10T18:48:32;62.0;;;54.0;;
22673;SDS011;11504;43.334;21.918;2024-01-10T18:53:09;62.0;;;54.0;;
22673;SDS011;11504;43.334;21.918;2024-01-10T18:57:45;48.0;;;41.0;;
22673;SDS011;11504;43.334;21.918;2024-01-10T19:02:21;48.0;;;41.0;;
22673;SDS011;11504;43.334;21.918;2024-01-10T19:06:57;80.0;;;70.0;;
22673;SDS011;11504;43.334;21.918;2024-01-10T19:11:34;80.0;;;70.0;;
22673;SDS011;11504;43.334;21.918;2024-01-10T19:16:10;113.0;;;98.0;;
22673;SDS011;11504;43.334;21.918;2024-01-10T19:20:46;113.0;;;98.0;;
22673;SDS011;11504;43.334;21.918;2024-01-10T19:25:22;122.0;;;106.0;;
22673;SDS011;11504;43.334;21.918;2024-01-10T19:29:59;122.0;;;106.0;;
22673;SDS011;11504;43.334;21.918;2024-01-10T19:34:35;131.0;;;113.0;;
22673;SDS011;11504;43.334;21.918;2024-01-10T19:39:11;131.0;;;113.0;;
22673;SDS011;11504;43.334;21.918;2024-01-10T19:43:48;131.0;;;113.0;;
22673;SDS011;11504;43.334;21.918;2024-01-10T19:48:27;122.0;;;106.0;;
22673;SDS011;11504;43.334;21.918;2024-01-10T19:53:03;122.0;;;106.0;;
22673;SDS011;11504;43.334;21.918;2024-01-10T19:57:40;112.0;;;100.0;;
22673;SDS011;11504;43.334;21.918;2024-01-10T20:02:16;112.0;;;100.0;;
22673;SDS011;11504;43.334;21.918;2024-01-10T20:06:53;97.0;;;88.0;;
22673;SDS011;11504;43.334;21.918;2024-01-10T20:11:29;97.0;;;88.0;;
22673;SDS011;11504;43.334;21.918;2024-01-10T20:16:07;82.0;;;75.0;;
22673;SDS011;11504;43.334;21.918;2024-01-10T20:20:44;82.0;;;75.0;;
22673;SDS011;11504;43.334;21.918;2024-01-10T20:25:21;111.0;;;96.0;;
22673;SDS011;11504;43.334;21.918;2024-01-10T20:29:58;111.0;;;96.0;;
22673;SDS011;11504;43.334;21.918;2024-01-10T20:34:35;140.0;;;118.0;;
22673;SDS011;11504;43.334;21.918;2024-01-10T20:39:11;140.0;;;118.0;;
22673;SDS011;11504;43.334;21.918;2024-01-10T20:43:47;140.0;;;118.0;;
22673;SDS011;11504;43.334;21.918;2024-01-10T20:48:23;138.0;;;116.0;;
22673;SDS011;11504;43.334;21.918;2024-01-10T20:52:59;138.0;;;116.0;;
22673;SDS011;11504;43.334;21.918;2024-01-10T20:57:35;135.0;;;113.0;;
22673;SDS011;11504;43.334;21.918;2024-01-10T21:02:12;135.0;;;113.0;;
22673;SDS011;11504;43.334;21.918;2024-01-10T21:06:48;156.0;;;130.0;;
22673;SDS011;11504;43.334;21.918;2024-01-10T21:11:24;156.0;;;130.0;;
22673;SDS011;11504;43.334;21.918;2024-01-10T21:16:01;176.0;;;147.0;;
22673;SDS011;11504;43.334;21.918;2024-01-10T21:20:38;176.0;;;147.0;;
22673;SDS011;11504;43.334;21.918;2024-01-10T21:25:15;152.0;;;128.0;;
22673;SDS011;11504;43.334;21.918;2024-01-10T21:29:51;152.0;;;128.0;;
22673;SDS011;11504;43.334;21.918;2024-01-10T21:34:28;129.0;;;109.0;;
22673;SDS011;11504;43.334;21.918;2024-01-10T21:39:04;129.0;;;109.0;;
22673;SDS011;11504;43.334;21.918;2024-01-10T21:43:41;129.0;;;109.0;;
22673;SDS011;11504;43.334;21.918;2024-01-10T21:48:17;115.0;;;98.0;;
22673;SDS011;11504;43.334;21.918;2024-01-10T21:52:53;115.0;;;98.0;;
22673;SDS011;11504;43.334;21.918;2024-01-10T21:57:30;101.0;;;88.0;;
22673;SDS011;11504;43.334;21.918;2024-01-10T22:02:06;101.0;;;88.0;;
22673;SDS011;11504;43.334;21.918;2024-01-10T22:06:43;124.0;;;108.0;;
22673;SDS011;11504;43.334;21.918;2024-01-10T22:11:19;124.0;;;108.0;;
22673;SDS011;11504;43.334;21.918;2024-01-10T22:15:55;146.0;;;129.0;;
22673;SDS011;11504;43.334;21.918;2024-01-10T22:20:31;146.0;;;129.0;;
22673;SDS011;11504;43.334;21.918;2024-01-10T22:25:08;146.0;;;130.0;;
22673;SDS011;11504;43.334;21.918;2024-01-10T22:29:44;146.0;;;130.0;;
22673;SDS011;11504;43.334;21.918;2024-01-10T22:34:21;146.0;;;130.0;;
22673;SDS011;11504;43.334;21.918;2024-01-10T22:38:58;147.0;;;130.0;;
22673;SDS011;11504;43.334;21.918;2024-01-10T22:43:34;147.0;;;130.0;;
22673;SDS011;11504;43.334;21.918;2024-01-10T22:48:11;114.0;;;102.0;;
22673;SDS011;11504;43.334;21.918;2024-01-10T22:52:47;114.0;;;102.0;;
22673;SDS011;11504;43.334;21.918;2024-01-10T22:57:24;82.0;;;75.0;;
22673;SDS011;11504;43.334;21.918;2024-01-10T23:02:01;82.0;;;75.0;;
22673;SDS011;11504;43.334;21.918;2024-01-10T23:06:37;96.0;;;86.0;;
22673;SDS011;11504;43.334;21.918;2024-01-10T23:11:14;96.0;;;86.0;;
22673;SDS011;11504;43.334;21.918;2024-01-10T23:15:51;109.0;;;97.0;;
22673;SDS011;11504;43.334;21.918;2024-01-10T23:20:27;109.0;;;97.0;;
22673;SDS011;11504;43.334;21.918;2024-01-10T23:25:05;106.0;;;94.0;;
22673;SDS011;11504;43.334;21.918;2024-01-10T23:29:42;106.0;;;94.0;;
22673;SDS011;11504;43.334;21.918;2024-01-10T23:34:18;106.0;;;94.0;;
22673;SDS011;11504;43.334;21.918;2024-01-10T23:38:54;102.0;;;90.0;;
22673;SDS011;11504;43.334;21.918;2024-01-10T23:43:30;102.0;;;90.0;;
22673;SDS011;11504;43.334;21.918;2024-01-10T23:48:07;119.0;;;102.0;;
22673;SDS011;11504;43.334;21.918;2024-01-10T23:52:44;119.0;;;102.0;;
22673;SDS011;11504;43.334;21.918;2024-01-10T23:57:20;136.0;;;114.0;;
